createdAt,value
2023-03-03T00:01:44.360Z,33.60
2023-03-03T00:04:12.637Z,34.40
2023-03-03T00:06:41.833Z,33.60
2023-03-03T00:09:10.315Z,37.10
2023-03-03T00:11:38.839Z,37.30
2023-03-03T00:14:19.572Z,46.80
2023-03-03T00:16:49.584Z,43.70
2023-03-03T00:19:19.624Z,45.30
2023-03-03T00:21:49.552Z,45.60
2023-03-03T00:24:24.778Z,41.80
2023-03-03T00:26:55.713Z,43.80
2023-03-03T00:29:39.947Z,47.50
2023-03-03T00:32:27.148Z,36.10
2023-03-03T00:34:56.652Z,43.30
2023-03-03T00:37:30.344Z,30.90
2023-03-03T00:40:03.167Z,34.70
2023-03-03T00:42:32.579Z,37.50
2023-03-03T00:45:57.728Z,30.20
2023-03-03T00:48:45.405Z,28.20
2023-03-03T00:51:27.341Z,26.40
2023-03-03T00:53:56.340Z,26.60
2023-03-03T00:56:24.679Z,26.10
2023-03-03T00:58:54.624Z,27.00
2023-03-03T01:01:25.732Z,22.20
2023-03-03T01:03:55.543Z,27.20
2023-03-03T01:06:24.161Z,17.50
2023-03-03T01:08:52.381Z,15.90
2023-03-03T01:11:24.178Z,17.40
2023-03-03T01:13:52.349Z,16.40
2023-03-03T01:16:26.741Z,14.70
2023-03-03T01:19:54.740Z,14.20
2023-03-03T01:22:35.301Z,13.90
2023-03-03T01:25:06.442Z,16.30
2023-03-03T01:27:35.511Z,11.40
2023-03-03T01:30:07.210Z,16.80
2023-03-03T01:32:36.397Z,10.00
2023-03-03T01:35:05.386Z,11.60
2023-03-03T01:37:36.251Z,14.60
2023-03-03T01:40:06.514Z,12.30
2023-03-03T01:42:37.076Z,12.20
2023-03-03T01:45:31.474Z,14.60
2023-03-03T01:48:33.440Z,14.10
2023-03-03T01:51:21.839Z,11.20
2023-03-03T01:53:53.396Z,10.70
2023-03-03T01:56:22.127Z,9.20
2023-03-03T01:59:03.548Z,12.30
2023-03-03T02:01:32.437Z,10.00
2023-03-03T02:04:01.712Z,9.70
2023-03-03T02:06:33.721Z,9.00
2023-03-03T02:09:12.616Z,9.00
2023-03-03T02:11:43.626Z,11.10
2023-03-03T02:14:12.620Z,14.60
2023-03-03T02:16:45.857Z,10.10
2023-03-03T02:19:30.581Z,13.40
2023-03-03T02:21:59.986Z,8.70
2023-03-03T02:24:31.768Z,16.20
2023-03-03T02:27:02.743Z,12.30
2023-03-03T02:29:32.330Z,12.40
2023-03-03T02:32:01.167Z,10.40
2023-03-03T02:34:30.072Z,11.20
2023-03-03T02:36:58.212Z,12.20
2023-03-03T02:39:27.443Z,17.40
2023-03-03T02:42:09.041Z,14.20
2023-03-03T02:44:48.679Z,10.60
2023-03-03T02:47:17.572Z,11.40
2023-03-03T02:49:45.750Z,11.30
2023-03-03T02:52:15.108Z,10.90
2023-03-03T02:54:46.083Z,18.00
2023-03-03T02:57:14.324Z,9.10
2023-03-03T02:59:42.736Z,9.50
2023-03-03T03:02:13.942Z,12.90
2023-03-03T03:04:43.465Z,10.20
2023-03-03T03:07:15.145Z,15.50
2023-03-03T03:09:46.084Z,11.20
2023-03-03T03:12:16.228Z,10.20
2023-03-03T03:14:44.884Z,11.00
2023-03-03T03:17:13.570Z,10.70
2023-03-03T03:19:42.256Z,8.30
2023-03-03T03:22:10.842Z,9.70
2023-03-03T03:24:40.449Z,12.00
2023-03-03T03:27:09.862Z,10.80
2023-03-03T03:29:40.074Z,23.00
2023-03-03T03:32:10.127Z,15.00
2023-03-03T03:34:38.883Z,20.40
2023-03-03T03:37:09.974Z,11.50
2023-03-03T03:39:59.197Z,10.70
2023-03-03T03:42:28.105Z,8.30
2023-03-03T03:44:57.863Z,10.10
2023-03-03T03:47:29.139Z,10.30
2023-03-03T03:49:59.104Z,12.90
2023-03-03T03:52:27.641Z,11.00
2023-03-03T03:54:56.132Z,11.30
2023-03-03T03:57:26.564Z,11.40
2023-03-03T04:00:16.592Z,13.00
2023-03-03T04:02:51.455Z,11.20
2023-03-03T04:05:20.982Z,11.10
2023-03-03T04:07:49.257Z,8.70
2023-03-03T04:10:18.964Z,10.30
2023-03-03T04:12:48.061Z,11.00
2023-03-03T04:15:16.534Z,18.20
2023-03-03T04:17:46.152Z,13.50
2023-03-03T04:20:16.076Z,11.10
2023-03-03T04:22:45.167Z,18.60
2023-03-03T04:25:15.314Z,10.30
2023-03-03T04:27:44.477Z,11.80
2023-03-03T04:30:13.785Z,12.00
2023-03-03T04:32:42.260Z,12.60
2023-03-03T04:35:12.384Z,16.60
2023-03-03T04:37:42.736Z,11.00
2023-03-03T04:40:11.824Z,10.40
2023-03-03T04:42:41.516Z,11.70
2023-03-03T04:45:14.820Z,10.30
2023-03-03T04:47:44.415Z,11.70
2023-03-03T04:50:12.693Z,18.10
2023-03-03T04:52:42.211Z,11.80
2023-03-03T04:55:11.294Z,13.10
2023-03-03T04:57:40.100Z,11.50
2023-03-03T05:00:13.344Z,11.50
2023-03-03T05:02:47.713Z,13.60
2023-03-03T05:05:16.687Z,20.30
2023-03-03T05:07:44.657Z,13.40
2023-03-03T05:10:12.834Z,17.10
2023-03-03T05:12:41.407Z,11.20
2023-03-03T05:15:10.818Z,10.60
2023-03-03T05:17:39.922Z,20.30
2023-03-03T05:20:10.887Z,10.60
2023-03-03T05:22:41.585Z,8.90
2023-03-03T05:25:11.395Z,9.50
2023-03-03T05:27:40.097Z,17.10
2023-03-03T05:30:09.327Z,10.20
2023-03-03T05:32:38.471Z,17.60
2023-03-03T05:35:07.163Z,11.70
2023-03-03T05:37:35.480Z,9.50
2023-03-03T05:40:05.864Z,10.20
2023-03-03T05:42:34.274Z,19.40
2023-03-03T05:45:03.345Z,18.60
2023-03-03T05:47:31.815Z,12.60
2023-03-03T05:50:01.242Z,15.90
2023-03-03T05:52:30.012Z,12.00
2023-03-03T05:54:59.119Z,8.90
2023-03-03T05:57:28.409Z,17.10
2023-03-03T06:00:01.295Z,10.40
2023-03-03T06:02:29.469Z,11.00
2023-03-03T06:04:57.744Z,9.60
2023-03-03T06:07:26.175Z,15.60
2023-03-03T06:09:54.605Z,9.90
2023-03-03T06:12:25.539Z,9.50
2023-03-03T06:14:55.669Z,8.20
2023-03-03T06:17:28.115Z,13.10
2023-03-03T06:20:01.333Z,12.30
2023-03-03T06:22:30.539Z,12.00
2023-03-03T06:24:58.807Z,12.80
2023-03-03T06:27:27.190Z,11.80
2023-03-03T06:29:55.569Z,11.50
2023-03-03T06:32:23.889Z,15.20
2023-03-03T06:34:52.258Z,11.80
2023-03-03T06:37:20.596Z,14.40
2023-03-03T06:39:48.925Z,8.10
2023-03-03T06:42:19.299Z,17.30
2023-03-03T06:44:47.906Z,11.70
2023-03-03T06:47:16.982Z,18.80
2023-03-03T06:49:49.045Z,10.60
2023-03-03T06:52:23.515Z,9.00
2023-03-03T06:54:59.636Z,9.80
2023-03-03T06:57:28.235Z,14.70
2023-03-03T07:00:16.188Z,8.70
2023-03-03T07:02:44.856Z,12.10
2023-03-03T07:05:18.045Z,15.20
2023-03-03T07:07:46.716Z,9.40
2023-03-03T07:10:27.172Z,15.60
2023-03-03T07:13:03.038Z,7.20
2023-03-03T07:15:35.206Z,16.30
2023-03-03T07:18:04.814Z,9.80
2023-03-03T07:20:37.152Z,15.00
2023-03-03T07:23:25.541Z,9.40
2023-03-03T07:25:56.376Z,13.50
2023-03-03T07:28:26.662Z,11.30
2023-03-03T07:30:59.527Z,9.50
2023-03-03T07:33:40.764Z,11.50
2023-03-03T07:36:36.585Z,13.80
2023-03-03T07:39:39.075Z,9.50
2023-03-03T07:42:23.653Z,11.80
2023-03-03T07:45:00.826Z,7.70
2023-03-03T07:47:36.766Z,9.80
2023-03-03T07:50:15.512Z,15.30
2023-03-03T07:52:49.398Z,9.40
2023-03-03T07:55:20.850Z,16.00
2023-03-03T07:57:49.026Z,14.20
2023-03-03T08:00:17.358Z,9.50
2023-03-03T08:02:49.199Z,7.70
2023-03-03T08:05:32.996Z,12.10
2023-03-03T08:08:12.442Z,8.40
2023-03-03T08:10:51.042Z,11.90
2023-03-03T08:13:21.790Z,15.00
2023-03-03T08:15:52.703Z,11.60
2023-03-03T08:19:32.953Z,9.50
2023-03-03T08:22:07.414Z,8.00
2023-03-03T08:24:39.877Z,15.60
2023-03-03T08:27:08.037Z,10.90
2023-03-03T08:29:36.337Z,17.90
2023-03-03T08:32:05.404Z,10.00
2023-03-03T08:34:33.696Z,13.90
2023-03-03T08:37:03.424Z,8.10
2023-03-03T08:39:31.720Z,9.40
2023-03-03T08:42:00.163Z,9.70
2023-03-03T08:44:28.540Z,7.90
2023-03-03T08:46:56.838Z,14.20
2023-03-03T08:49:26.433Z,10.20
2023-03-03T08:51:54.910Z,11.00
2023-03-03T08:54:23.188Z,15.10
2023-03-03T08:56:52.180Z,10.20
2023-03-03T08:59:20.589Z,16.60
2023-03-03T09:01:48.882Z,14.50
2023-03-03T09:04:18.609Z,7.60
2023-03-03T09:06:48.567Z,8.70
2023-03-03T09:09:17.864Z,8.50
2023-03-03T09:11:48.088Z,15.70
2023-03-03T09:14:18.312Z,14.00
2023-03-03T09:16:53.454Z,9.30
2023-03-03T09:19:24.469Z,14.00
2023-03-03T09:21:55.016Z,8.00
2023-03-03T09:24:32.410Z,14.00
2023-03-03T09:27:03.247Z,8.30
2023-03-03T09:29:37.563Z,16.10
2023-03-03T09:32:17.646Z,7.70
2023-03-03T09:34:46.083Z,13.90
2023-03-03T09:37:32.906Z,15.00
2023-03-03T09:40:01.088Z,13.30
2023-03-03T09:43:03.664Z,10.80
2023-03-03T09:45:57.949Z,14.80
2023-03-03T09:48:34.247Z,8.70
2023-03-03T09:51:12.319Z,8.70
2023-03-03T09:53:52.377Z,13.60
2023-03-03T09:56:28.841Z,13.00
2023-03-03T09:59:21.501Z,12.90
2023-03-03T10:01:55.627Z,13.40
2023-03-03T10:04:42.882Z,14.10
2023-03-03T10:07:26.868Z,13.60
2023-03-03T10:10:14.168Z,11.80
2023-03-03T10:12:54.797Z,11.30
2023-03-03T10:15:41.987Z,9.10
2023-03-03T10:18:12.922Z,6.40
2023-03-03T10:21:05.913Z,9.40
2023-03-03T10:23:49.728Z,13.20
2023-03-03T10:26:43.868Z,13.10
2023-03-03T10:29:22.491Z,14.80
2023-03-03T10:32:06.322Z,12.10
2023-03-03T10:34:53.045Z,6.40
2023-03-03T10:37:40.597Z,14.90
2023-03-03T10:40:33.114Z,11.00
2023-03-03T10:43:04.283Z,13.60
2023-03-03T10:45:40.611Z,13.80
2023-03-03T10:48:18.146Z,9.30
2023-03-03T10:50:54.613Z,11.80
2023-03-03T10:53:44.291Z,13.10
2023-03-03T10:56:28.028Z,13.60
2023-03-03T10:59:31.953Z,13.70
2023-03-03T11:02:06.860Z,11.50
2023-03-03T11:04:56.670Z,4.80
2023-03-03T11:07:33.841Z,6.40
2023-03-03T11:10:59.746Z,10.60
2023-03-03T11:13:56.001Z,6.50
2023-03-03T11:16:31.506Z,6.00
2023-03-03T11:19:03.737Z,9.60
2023-03-03T11:21:34.661Z,9.40
2023-03-03T11:24:19.836Z,8.00
2023-03-03T11:27:12.788Z,6.00
2023-03-03T11:30:07.584Z,8.90
2023-03-03T11:32:35.965Z,10.70
2023-03-03T11:35:07.619Z,9.10
2023-03-03T11:37:57.094Z,8.90
2023-03-03T11:40:31.107Z,9.20
2023-03-03T11:43:37.882Z,9.30
2023-03-03T11:46:12.248Z,4.80
2023-03-03T11:48:46.640Z,8.20
2023-03-03T11:51:43.204Z,8.10
2023-03-03T11:54:25.376Z,3.40
2023-03-03T11:57:05.724Z,7.20
2023-03-03T12:00:13.219Z,8.10
2023-03-03T12:02:58.988Z,8.30
2023-03-03T12:05:48.526Z,6.50
2023-03-03T12:08:36.224Z,8.30
2023-03-03T12:11:29.993Z,8.50
2023-03-03T12:14:18.230Z,7.90
2023-03-03T12:16:52.477Z,9.40
2023-03-03T12:19:32.525Z,7.50
2023-03-03T12:22:23.003Z,7.80
2023-03-03T12:25:09.737Z,8.20
2023-03-03T12:27:41.420Z,6.90
2023-03-03T12:30:28.995Z,8.90
2023-03-03T12:33:32.091Z,6.90
2023-03-03T12:36:12.280Z,6.40
2023-03-03T12:41:20.574Z,6.70
2023-03-03T12:43:55.466Z,3.40
2023-03-03T12:46:40.415Z,6.40
2023-03-03T12:49:08.760Z,6.00
2023-03-03T12:51:56.383Z,6.90
2023-03-03T12:54:40.642Z,4.40
2023-03-03T12:57:20.072Z,3.70
2023-03-03T13:00:23.177Z,5.70
2023-03-03T13:03:01.272Z,7.60
2023-03-03T13:05:56.581Z,6.20
2023-03-03T13:08:38.267Z,8.70
2023-03-03T13:11:25.202Z,5.40
2023-03-03T13:14:04.627Z,9.20
2023-03-03T13:16:41.584Z,7.90
2023-03-03T13:19:24.256Z,9.80
2023-03-03T13:22:01.755Z,11.60
2023-03-03T13:24:34.266Z,11.30
2023-03-03T13:27:12.701Z,10.70
2023-03-03T13:30:02.884Z,9.90
2023-03-03T13:32:45.084Z,7.20
2023-03-03T13:35:35.535Z,12.20
2023-03-03T13:38:05.610Z,9.20
2023-03-03T13:40:49.216Z,15.40
2023-03-03T13:43:20.436Z,18.40
2023-03-03T13:45:59.593Z,16.60
2023-03-03T13:48:56.631Z,11.30
2023-03-03T13:51:36.727Z,19.50
2023-03-03T13:54:17.504Z,20.20
2023-03-03T13:56:56.524Z,19.10
2023-03-03T13:59:43.643Z,19.00
2023-03-03T14:02:49.500Z,15.20
2023-03-03T14:05:26.508Z,22.90
2023-03-03T14:07:58.971Z,21.60
2023-03-03T14:10:31.878Z,12.60
2023-03-03T14:13:11.898Z,22.00
2023-03-03T14:15:57.480Z,12.90
2023-03-03T14:18:46.752Z,17.40
2023-03-03T14:21:17.817Z,22.30
2023-03-03T14:23:51.904Z,26.20
2023-03-03T14:26:20.794Z,26.50
2023-03-03T14:28:51.235Z,14.80
2023-03-03T14:31:27.194Z,14.10
2023-03-03T14:34:11.380Z,15.20
2023-03-03T14:36:41.090Z,25.60
2023-03-03T14:39:34.529Z,16.00
2023-03-03T14:42:11.595Z,25.90
2023-03-03T14:44:47.157Z,21.80
2023-03-03T14:47:22.991Z,15.60
2023-03-03T14:49:56.718Z,12.30
2023-03-03T14:52:26.824Z,21.60
2023-03-03T14:54:56.885Z,23.00
2023-03-03T14:57:41.964Z,15.40
2023-03-03T15:00:13.496Z,16.50
2023-03-03T15:02:51.415Z,21.50
2023-03-03T15:05:22.055Z,21.10
2023-03-03T15:08:09.228Z,20.60
2023-03-03T15:10:44.590Z,12.70
2023-03-03T15:13:20.025Z,15.30
2023-03-03T15:16:18.535Z,20.30
2023-03-03T15:19:02.834Z,14.60
2023-03-03T15:21:34.312Z,19.00
2023-03-03T15:24:10.678Z,15.90
2023-03-03T15:27:02.894Z,12.30
2023-03-03T15:29:40.895Z,14.60
2023-03-03T15:32:32.268Z,19.00
2023-03-03T15:35:28.865Z,8.50
2023-03-03T15:38:02.968Z,9.40
2023-03-03T15:40:35.968Z,14.10
2023-03-03T15:43:10.635Z,14.80
2023-03-03T15:45:53.092Z,8.60
2023-03-03T15:48:49.211Z,17.50
2023-03-03T15:52:00.997Z,7.70
2023-03-03T15:54:42.910Z,8.00
2023-03-03T15:57:17.904Z,8.20
2023-03-03T16:00:03.238Z,12.30
2023-03-03T16:03:10.801Z,11.80
2023-03-03T16:05:55.409Z,14.20
2023-03-03T16:08:57.854Z,7.80
2023-03-03T16:11:42.821Z,11.70
2023-03-03T16:14:36.656Z,7.90
2023-03-03T16:17:12.247Z,10.80
2023-03-03T16:19:56.402Z,14.80
2023-03-03T16:22:34.740Z,13.40
2023-03-03T16:25:41.080Z,6.70
2023-03-03T16:28:23.280Z,7.60
2023-03-03T16:31:10.757Z,15.80
2023-03-03T16:33:55.478Z,11.70
2023-03-03T16:36:28.951Z,16.90
2023-03-03T16:39:05.036Z,8.40
2023-03-03T16:41:56.048Z,8.00
2023-03-03T16:44:56.164Z,13.10
2023-03-03T16:47:33.558Z,8.10
2023-03-03T16:50:30.614Z,9.90
2023-03-03T16:53:25.943Z,10.00
2023-03-03T16:56:03.279Z,17.00
2023-03-03T16:58:45.819Z,10.60
2023-03-03T17:01:29.554Z,16.10
2023-03-03T17:04:14.906Z,9.10
2023-03-03T17:06:55.130Z,8.60
2023-03-03T17:09:32.843Z,10.70
2023-03-03T17:12:14.607Z,8.90
2023-03-03T17:15:06.122Z,16.60
2023-03-03T17:18:00.585Z,10.90
2023-03-03T17:20:47.296Z,9.90
2023-03-03T17:23:23.136Z,16.80
2023-03-03T17:26:10.060Z,9.40
2023-03-03T17:28:57.488Z,14.00
2023-03-03T17:32:00.803Z,9.10
2023-03-03T17:34:39.613Z,10.30
2023-03-03T17:37:17.001Z,9.70
2023-03-03T17:40:14.265Z,9.10
2023-03-03T17:43:12.027Z,13.00
2023-03-03T17:45:42.628Z,7.50
2023-03-03T17:48:32.549Z,18.10
2023-03-03T17:51:14.851Z,9.30
2023-03-03T17:53:59.202Z,16.20
2023-03-03T17:56:57.176Z,12.80
2023-03-03T17:59:39.484Z,11.70
2023-03-03T18:02:26.528Z,11.50
2023-03-03T18:05:02.088Z,23.50
2023-03-03T18:07:40.872Z,13.70
2023-03-03T18:10:43.977Z,11.30
2023-03-03T18:13:24.863Z,24.20
2023-03-03T18:16:19.232Z,13.80
2023-03-03T18:19:09.520Z,15.00
2023-03-03T18:21:48.042Z,23.90
2023-03-03T18:24:25.464Z,12.90
2023-03-03T18:26:56.310Z,11.00
2023-03-03T18:29:28.502Z,15.10
2023-03-03T18:31:59.836Z,25.70
2023-03-03T18:34:34.633Z,12.80
2023-03-03T18:37:26.440Z,14.10
2023-03-03T18:40:26.768Z,29.40
2023-03-03T18:42:55.764Z,14.20
2023-03-03T18:45:25.688Z,17.30
2023-03-03T18:48:10.642Z,15.50
2023-03-03T18:50:48.989Z,13.70
2023-03-03T18:53:20.769Z,17.90
2023-03-03T18:55:50.365Z,12.20
2023-03-03T18:58:18.596Z,16.70
2023-03-03T19:00:52.092Z,25.50
2023-03-03T19:03:31.344Z,14.70
2023-03-03T19:06:03.086Z,22.60
2023-03-03T19:08:54.196Z,12.50
2023-03-03T19:11:42.045Z,16.30
2023-03-03T19:14:29.799Z,24.40
2023-03-03T19:17:21.180Z,28.30
2023-03-03T19:20:15.565Z,21.70
2023-03-03T19:22:49.686Z,12.40
2023-03-03T19:25:26.335Z,16.80
2023-03-03T19:28:17.674Z,18.80
2023-03-03T19:30:59.400Z,17.50
2023-03-03T19:33:51.041Z,17.40
2023-03-03T19:36:36.564Z,19.90
2023-03-03T19:39:36.283Z,13.60
2023-03-03T19:42:13.674Z,17.70
2023-03-03T19:45:01.411Z,17.00
2023-03-03T19:47:29.795Z,11.90
2023-03-03T19:50:12.650Z,16.20
2023-03-03T19:52:48.100Z,15.80
2023-03-03T19:55:49.811Z,24.20
2023-03-03T19:58:23.322Z,17.40
2023-03-03T20:01:02.044Z,13.00
2023-03-03T20:03:59.493Z,15.40
2023-03-03T20:06:54.841Z,15.10
2023-03-03T20:09:47.990Z,18.00
2023-03-03T20:12:48.043Z,18.00
2023-03-03T20:15:21.174Z,16.00
2023-03-03T20:18:01.751Z,17.90
2023-03-03T20:20:48.583Z,16.20
2023-03-03T20:23:24.719Z,17.50
2023-03-03T20:26:06.571Z,16.30
2023-03-03T20:29:12.469Z,15.10
2023-03-03T20:32:11.842Z,19.90
2023-03-03T20:48:22.256Z,17.50
2023-03-03T20:51:29.050Z,26.70
2023-03-03T20:54:11.415Z,14.50
2023-03-03T20:57:23.314Z,16.20
2023-03-03T21:00:00.117Z,19.70
2023-03-03T21:02:29.570Z,32.30
2023-03-03T21:05:13.237Z,18.40
2023-03-03T21:07:51.033Z,16.20
2023-03-03T21:10:42.549Z,16.60
2023-03-03T21:13:38.781Z,16.00
2023-03-03T21:16:09.271Z,14.90
2023-03-03T21:18:36.262Z,14.50
2023-03-03T21:21:03.108Z,16.10
2023-03-03T21:23:31.173Z,15.70
2023-03-03T21:25:57.953Z,13.10
2023-03-03T21:28:29.265Z,17.60
2023-03-03T21:31:02.180Z,16.40
2023-03-03T21:33:42.153Z,15.90
2023-03-03T21:36:16.825Z,13.80
2023-03-03T21:38:45.520Z,16.70
2023-03-03T21:41:14.092Z,14.10
2023-03-03T21:43:51.619Z,15.80
2023-03-03T21:46:22.811Z,20.80
2023-03-03T21:49:09.644Z,16.50
2023-03-03T21:51:37.610Z,16.80
2023-03-03T21:54:05.049Z,14.70
2023-03-03T21:56:34.580Z,17.40
2023-03-03T21:59:01.396Z,20.20
2023-03-03T22:01:28.390Z,18.30
2023-03-03T22:03:55.411Z,14.10
2023-03-03T22:06:23.151Z,12.20
2023-03-03T22:08:53.914Z,16.90
2023-03-03T22:11:21.097Z,15.10
2023-03-03T22:13:47.903Z,16.60
2023-03-03T22:16:15.288Z,15.20
2023-03-03T22:18:42.306Z,17.70
2023-03-03T22:21:10.275Z,14.00
2023-03-03T22:23:37.847Z,14.40
2023-03-03T22:26:04.780Z,20.20
2023-03-03T22:28:32.447Z,16.30
2023-03-03T22:30:59.196Z,19.20
2023-03-03T22:33:30.328Z,15.90
2023-03-03T22:35:57.239Z,13.50
2023-03-03T22:38:24.575Z,16.20
2023-03-03T22:40:52.291Z,16.10
2023-03-03T22:43:19.059Z,16.90
2023-03-03T22:45:45.882Z,14.20
2023-03-03T22:48:13.442Z,15.50
2023-03-03T22:50:44.929Z,15.40
2023-03-03T22:53:31.706Z,16.10
2023-03-03T22:56:00.434Z,16.30
2023-03-03T22:58:28.871Z,14.80
2023-03-03T23:00:56.164Z,16.20
2023-03-03T23:03:23.471Z,19.20
2023-03-03T23:05:51.913Z,15.30
2023-03-03T23:08:19.778Z,17.30
2023-03-03T23:10:49.018Z,13.40
2023-03-03T23:13:16.475Z,14.30
2023-03-03T23:15:43.878Z,12.60
2023-03-03T23:18:11.206Z,14.80
2023-03-03T23:20:38.335Z,16.80
2023-03-03T23:23:05.690Z,20.60
2023-03-03T23:25:33.796Z,18.10
2023-03-03T23:28:01.288Z,15.10
2023-03-03T23:30:28.470Z,14.10
2023-03-03T23:32:55.266Z,17.50
2023-03-03T23:35:22.258Z,17.60
2023-03-03T23:37:49.641Z,19.10
2023-03-03T23:40:16.966Z,16.70
2023-03-03T23:42:43.943Z,18.40
2023-03-03T23:45:11.296Z,16.60
2023-03-03T23:47:38.215Z,15.40
2023-03-03T23:50:05.726Z,16.20
2023-03-03T23:52:32.926Z,18.00
2023-03-03T23:55:02.138Z,13.00
2023-03-03T23:57:29.374Z,18.30
2023-03-03T23:59:57.224Z,14.50
